logo
Rechercher aéroport 
image banner adimage banner adimage banner ad
image banner ad

D83 - Boonville

Situé à Boonville, United States

ICAO - D83, IATA -

Données fournies par Airmate  

Information générale

Coordonnées: N39°0'50" W123°22'54"
Élévation : 379 feet MSL.
Variation magnétique : 17° East
Voir autres Aéroports à California

Données opérationnelles

Special qualification required
Heure actuelle UTC:
Heure actuelle locale:
Météo à : KUKI - Ukiah Muni ( 20 km )
METAR: KUKI 261456Z AUTO 00000KT 10SM CLR 12/09 A3000 RMK AO2 SLP153 T01170089 53007
TAF: KUKI 261134Z 2612/2712 VRB03KT P6SM SKC FM262200 27008KT P6SM SKC FM270200 VRB03KT P6SM SKC
Voir NOTAMs / SUP AIP / TFR affectant cet aéroport [VIEW]
Fréquences de communication: [VIEW]

Pistes:

Identifiant RWYQFULongueur (ft)Largeur (ft)SurfaceLDA (ft)
13283850ASPH
31283850ASPH

Coordonnées de l'aéroport

Adresse: Boonville United States

Vue satellite de D83